Map

Track Data

SID SEASON NUMBER BASIN SUBBASIN NAME ISO_TIME NATURE LAT LON WMO_WIND WMO_PRES WMO_AGENCY TRACK_TYPE DIST2LAND LANDFALL IFLAG USA_AGENCY USA_ATCF_ID USA_LAT USA_LON USA_RECORD USA_STATUS USA_WIND USA_PRES USA_SSHS USA_R34_NE USA_R34_SE USA_R34_SW USA_R34_NW USA_R50_NE USA_R50_SE USA_R50_SW USA_R50_NW USA_R64_NE USA_R64_SE USA_R64_SW USA_R64_NW USA_POCI USA_ROCI USA_RMW USA_EYE TOKYO_LAT TOKYO_LON TOKYO_GRADE TOKYO_WIND TOKYO_PRES TOKYO_R50_DIR TOKYO_R50_LONG TOKYO_R50_SHORT TOKYO_R30_DIR TOKYO_R30_LONG TOKYO_R30_SHORT TOKYO_LAND CMA_LAT CMA_LON CMA_CAT CMA_WIND CMA_PRES HKO_LAT HKO_LON HKO_CAT HKO_WIND HKO_PRES NEWDELHI_LAT NEWDELHI_LON NEWDELHI_GRADE NEWDELHI_WIND NEWDELHI_PRES NEWDELHI_CI NEWDELHI_DP NEWDELHI_POCI REUNION_LAT REUNION_LON REUNION_TYPE REUNION_WIND REUNION_PRES REUNION_TNUM REUNION_CI REUNION_RMW REUNION_R34_NE REUNION_R34_SE REUNION_R34_SW REUNION_R34_NW REUNION_R50_NE REUNION_R50_SE REUNION_R50_SW REUNION_R50_NW REUNION_R64_NE REUNION_R64_SE REUNION_R64_SW REUNION_R64_NW BOM_LAT BOM_LON BOM_TYPE BOM_WIND BOM_PRES BOM_TNUM BOM_CI BOM_RMW BOM_R34_NE BOM_R34_SE BOM_R34_SW BOM_R34_NW BOM_R50_NE BOM_R50_SE BOM_R50_SW BOM_R50_NW BOM_R64_NE BOM_R64_SE BOM_R64_SW BOM_R64_NW BOM_ROCI BOM_POCI BOM_EYE BOM_POS_METHOD BOM_PRES_METHOD NADI_LAT NADI_LON NADI_CAT NADI_WIND NADI_PRES WELLINGTON_LAT WELLINGTON_LON WELLINGTON_WIND WELLINGTON_PRES DS824_LAT DS824_LON DS824_STAGE DS824_WIND DS824_PRES TD9636_LAT TD9636_LON TD9636_STAGE TD9636_WIND TD9636_PRES TD9635_LAT TD9635_LON TD9635_WIND TD9635_PRES TD9635_ROCI NEUMANN_LAT NEUMANN_LON NEUMANN_CLASS NEUMANN_WIND NEUMANN_PRES MLC_LAT MLC_LON MLC_CLASS MLC_WIND MLC_PRES USA_GUST BOM_GUST BOM_GUST_PER REUNION_GUST REUNION_GUST_PER USA_SEAHGT USA_SEARAD_NE USA_SEARAD_SE USA_SEARAD_SW USA_SEARAD_NW STORM_SPEED STORM_DIR
1957041S12122 1957 16 SI WA NOT_NAMED 1957-02-09 23:00:00 NR -12.0000 121.600 main 224 224 __________O___ -1 -12.0000 121.600 1 7 0
1957041S12122 1957 16 SI WA NOT_NAMED 1957-02-10 00:00:00 TS -12.1072 121.611 main 234 234 O________OP___ jtwc_sh SH211957 -12.1000 121.600 -1 -12.1000 121.600 TC -12.1144 121.623 1 7 167
1957041S12122 1957 16 SI WA NOT_NAMED 1957-02-10 03:00:00 TS -12.4565 121.704 main 278 278 P________PP___ SH211957 -12.4575 121.712 -1 -12.4575 121.712 TC -12.4551 121.692 1 7 166
1957041S12122 1957 16 SI WA NOT_NAMED 1957-02-10 06:00:00 TS -12.7946 121.786 main 313 313 O________OP___ jtwc_sh SH211957 -12.8000 121.800 -1 -12.8000 121.800 TC -12.7866 121.765 1 7 168
1957041S12122 1957 16 SI WA NOT_NAMED 1957-02-10 09:00:00 TS -13.1107 121.848 main 344 344 P________PP___ SH211957 -13.1150 121.850 -1 -13.1150 121.850 TC -13.1020 121.843 1 6 169
1957041S12122 1957 16 SI WA NOT_NAMED 1957-02-10 11:00:00 TS -13.3056 121.887 main 368 363 P________PO___ SH211957 -13.3083 121.880 -1 -13.3083 121.880 TC -13.3000 121.900 7 6 168
1957041S12122 1957 16 SI WA NOT_NAMED 1957-02-10 12:00:00 TS -13.3982 121.910 main 363 327 O________OP___ jtwc_sh SH211957 -13.4000 121.900 -1 -13.4000 121.900 TC -13.3946 121.930 7 6 163
1957041S12122 1957 16 SI WA NOT_NAMED 1957-02-10 15:00:00 TS -13.6679 122.003 main 327 303 P________PP___ SH211957 -13.6725 121.992 -1 -13.6725 121.992 TC -13.6587 122.025 7 5 159
1957041S12122 1957 16 SI WA NOT_NAMED 1957-02-10 18:00:00 TS -13.8971 122.109 main 303 278 O________OP___ jtwc_sh SH211957 -13.9000 122.100 -1 -13.9000 122.100 TC -13.8913 122.127 7 5 154
1957041S12122 1957 16 SI WA NOT_NAMED 1957-02-10 21:00:00 TS -14.0780 122.210 main 278 265 P________PP___ SH211957 -14.0725 122.200 -1 -14.0725 122.200 TC -14.0890 122.231 7 4 149
1957041S12122 1957 16 SI WA NOT_NAMED 1957-02-10 23:00:00 TS -14.1740 122.278 main 265 265 P________PO___ SH211957 -14.1610 122.267 -1 -14.1610 122.267 TC -14.2000 122.300 1 3 145
1957041S12122 1957 16 SI WA NOT_NAMED 1957-02-11 00:00:00 TS -14.2163 122.312 main 265 254 O________OP___ jtwc_sh SH211957 -14.2000 122.300 -1 -14.2000 122.300 TC -14.2489 122.335 1 3 145
1957041S12122 1957 16 SI WA NOT_NAMED 1957-02-11 01:00:00 TS -14.2602 122.342 995 bom main 254 252 P_____O__PP___ SH211957 -14.2390 122.333 -1 -14.3000 122.300 995 -14.2390 122.333 TC -14.2926 122.369 1 3 139
1957041S12122 1957 16 SI WA NOT_NAMED 1957-02-11 03:00:00 TS -14.3324 122.413 main 252 238 P_____P__PP___ SH211957 -14.3075 122.400 -1 -14.3622 122.415 -14.3075 122.400 TC -14.3674 122.439 1 3 132
1957041S12122 1957 16 SI WA NOT_NAMED 1957-02-11 06:00:00 TS -14.4265 122.528 main 238 223 O_____P__OP___ jtwc_sh SH211957 -14.4000 122.500 -1 -14.4544 122.585 -14.4000 122.500 TC -14.4584 122.541 1 3 129
1957041S12122 1957 16 SI WA NOT_NAMED 1957-02-11 09:00:00 TS -14.5173 122.647 main 223 208 P_____P__PP___ SH211957 -14.4925 122.600 -1 -14.5435 122.748 -14.4925 122.600 TC -14.5407 122.639 1 3 130
1957041S12122 1957 16 SI WA NOT_NAMED 1957-02-11 11:00:00 TS -14.5806 122.721 main 208 203 P_____P__PO___ SH211957 -14.5610 122.667 -1 -14.6005 122.850 -14.5610 122.667 TC -14.6000 122.700 1 3 134
1957041S12122 1957 16 SI WA NOT_NAMED 1957-02-11 12:00:00 TS -14.6166 122.757 main 203 188 O_____P__OP___ jtwc_sh SH211957 -14.6000 122.700 -1 -14.6281 122.898 -14.6000 122.700 TC -14.6383 122.731 1 3 139
1957041S12122 1957 16 SI WA NOT_NAMED 1957-02-11 15:00:00 TS -14.7413 122.867 main 188 163 P_____P__PP___ SH211957 -14.7500 122.807 -1 -14.7063 123.032 -14.7500 122.807 TC -14.7588 122.819 1 3 141
1957041S12122 1957 16 SI WA NOT_NAMED 1957-02-11 18:00:00 TS -14.8654 122.961 main 163 153 O_____P__OP___ jtwc_sh SH211957 -14.9000 122.900 -1 -14.7765 123.145 -14.9000 122.900 TC -14.8850 122.898 1 3 145
1957041S12122 1957 16 SI WA NOT_NAMED 1957-02-11 21:00:00 TS -14.9628 123.028 main 153 148 P_____P__PP___ SH211957 -15.0000 122.958 -1 -14.8371 123.232 -15.0000 122.958 TC -15.0140 122.964 1 2 149
1957041S12122 1957 16 SI WA NOT_NAMED 1957-02-11 23:00:00 TS -15.0246 123.061 main 148 148 P_____P__PO___ SH211957 -15.0636 122.986 -1 -14.8713 123.273 -15.0636 122.986 TC -15.1000 123.000 1 2 144
1957041S12122 1957 16 SI WA NOT_NAMED 1957-02-12 00:00:00 TS -15.0478 123.090 main 148 138 O_____P__OP___ jtwc_sh SH211957 -15.1000 123.000 -1 -14.8864 123.289 -15.1000 123.000 TC -15.1417 123.018 1 2 129
1957041S12122 1957 16 SI WA NOT_NAMED 1957-02-12 01:00:00 TS -15.0739 123.115 990 bom main 138 138 P_____O__PP___ SH211957 -15.1469 123.019 -1 -14.9000 123.300 990 -15.1469 123.019 TC -15.1833 123.033 1 2 146
1957041S12122 1957 16 SI WA NOT_NAMED 1957-02-12 03:00:00 TS -15.1348 123.145 main 138 124 P_____P__PP___ SH211957 -15.2500 123.057 -1 -14.9233 123.311 -15.2500 123.057 TC -15.2667 123.060 1 2 168
1957041S12122 1957 16 SI WA NOT_NAMED 1957-02-12 06:00:00 TS -15.2240 123.165 main 124 114 O_____P__OP___ jtwc_sh SH211957 -15.4000 123.100 -1 -14.9544 123.300 -15.4000 123.100 TC -15.3917 123.088 1 2 174
1957041S12122 1957 16 SI WA NOT_NAMED 1957-02-12 09:00:00 TS -15.3065 123.155 main 114 110 P_____P__PP___ SH211957 -15.5000 123.108 -1 -14.9911 123.261 -15.5000 123.108 TC -15.5167 123.100 1 2 0
1957041S12122 1957 16 SI WA NOT_NAMED 1957-02-12 11:00:00 TS -15.3638 123.138 main 110 110 P_____P__PO___ SH211957 -15.5636 123.103 -1 -15.0242 123.223 -15.5636 123.103 TC -15.6000 123.100 2 2 0
1957041S12122 1957 16 SI WA NOT_NAMED 1957-02-12 12:00:00 TS -15.3960 123.129 main 110 101 O_____P__OP___ jtwc_sh SH211957 -15.6000 123.100 -1 -15.0447 123.200 -15.6000 123.100 TC -15.6429 123.101 2 2 196
1957041S12122 1957 16 SI WA NOT_NAMED 1957-02-12 15:00:00 TS -15.5162 123.102 main 101 92 P_____P__PP___ SH211957 -15.7500 123.107 -1 -15.1267 123.122 -15.7500 123.107 TC -15.7721 123.093 2 3 195
1957041S12122 1957 16 SI WA NOT_NAMED 1957-02-12 18:00:00 TS -15.6496 123.061 main 92 85 O_____P__OP___ jtwc_sh SH211957 -15.9000 123.100 -1 -15.2486 123.032 -15.9000 123.100 TC -15.8996 123.071 2 3 198
1957041S12122 1957 16 SI WA NOT_NAMED 1957-02-12 19:00:00 TS -15.6931 123.042 986 bom main 89 78 P_____O__PP___ SH211957 -15.9390 123.092 -1 -15.3000 123.000 986 -15.9390 123.092 TC -15.9412 123.060 2 3 201
1957041S12122 1957 16 SI WA NOT_NAMED 1957-02-12 21:00:00 TS -15.7828 123.000 main 78 67 P_____P__PP___ SH211957 -16.0075 123.065 -1 -15.4307 122.936 980 -16.0075 123.065 TC -16.0224 123.033 2 3 206
1957041S12122 1957 16 SI WA NOT_NAMED 1957-02-12 23:00:00 TS -15.8716 122.950 main 67 67 P_____P__PO___ SH211957 -16.0693 123.025 -1 -15.5697 122.867 975 -16.0693 123.025 TC -16.1000 123.000 4 3 207
1957041S12122 1957 16 SI WA NOT_NAMED 1957-02-13 00:00:00 TS -15.9145 122.923 main 67 67 O_____P__OP___ jtwc_sh SH211957 -16.1000 123.000 -1 -15.6370 122.833 972 -16.1000 123.000 TC -16.1355 122.983 4 3 216
1957041S12122 1957 16 SI WA NOT_NAMED 1957-02-13 01:00:00 TS -15.9568 122.893 970 bom main 55 55 P_____O__PP___ SH211957 -16.1333 122.970 -1 -15.7000 122.800 970 -16.1333 122.970 TC -16.1698 122.964 4 3 219
1957041S12122 1957 16 SI WA NOT_NAMED 1957-02-13 03:00:00 TS -16.0344 122.822 main 56 46 P_____P__PP___ SH211957 -16.2000 122.900 -1 -15.7969 122.715 970 -16.2000 122.900 TC -16.2358 122.921 4 3 222
1957041S12122 1957 16 SI WA NOT_NAMED 1957-02-13 06:00:00 TS -16.1421 122.718 main 49 39 O_____P__OP___ jtwc_sh SH211957 -16.3000 122.800 -1 -15.9096 122.590 970 -16.3000 122.800 TC -16.3320 122.846 4 3 218
1957041S12122 1957 16 SI WA NOT_NAMED 1957-02-13 09:00:00 TS -16.2445 122.650 main 39 39 P_____P__PP___ SH211957 -16.4000 122.750 -1 -16.0032 122.504 970 -16.4000 122.750 TC -16.4302 122.761 4 2 208
1957041S12122 1957 16 SI WA NOT_NAMED 1957-02-13 11:00:00 TS -16.3127 122.623 main 39 39 P_____P__PO___ SH211957 -16.4667 122.720 -1 -16.0660 122.490 970 -16.4667 122.720 TC -16.5000 122.700 2 2 204
1957041S12122 1957 16 SI WA NOT_NAMED 1957-02-13 12:00:00 TS -16.3467 122.615 970 bom main 39 30 O_____O__OP___ jtwc_sh SH211957 -16.5000 122.700 -1 -16.1000 122.500 970 -16.5000 122.700 TC -16.5334 122.674 2 2 0
1957041S12122 1957 16 SI WA NOT_NAMED 1957-02-13 15:00:00 TS -16.4439 122.606 main 30 24 P_____P__PP___ SH211957 -16.5850 122.607 -1 -16.2265 122.591 967 -16.5850 122.607 TC -16.6370 122.591 2 2 0
1957041S12122 1957 16 SI WA NOT_NAMED 1957-02-13 17:00:00 TS -16.5157 122.610 965 bom main 24 24 P_____O__PP___ SH211957 -16.6552 122.536 -1 -16.3000 122.700 965 -16.6552 122.536 TC -16.7124 122.530 2 2 169
1957041S12122 1957 16 SI WA NOT_NAMED 1957-02-13 18:00:00 TS -16.5538 122.615 main 15 10 O_____P__OP___ jtwc_sh SH211957 -16.7000 122.500 -1 -16.3160 122.779 965 -16.7000 122.500 TC -16.7531 122.497 2 3 170
1957041S12122 1957 16 SI WA NOT_NAMED 1957-02-13 21:00:00 TS -16.6987 122.640 965 bom main 10 10 P_____O__PP___ SH211957 -16.8850 122.415 -1 -16.4000 123.000 965 -16.8850 122.415 TC -16.8912 122.386 2 3 0
1957041S12122 1957 16 SI WA NOT_NAMED 1957-02-13 23:00:00 TS -16.8399 122.615 main 11 0 P_____P__PO___ SH211957 -17.0281 122.345 -1 -16.5552 123.060 965 -17.0281 122.345 TC -17.0000 122.300 2 5 194
1957041S12122 1957 16 SI WA NOT_NAMED 1957-02-14 00:00:00 TS -16.9256 122.581 main 0 0 O_____P__OP___ jtwc_sh SH211957 -17.1000 122.300 -1 -16.6664 123.048 965 -17.1000 122.300 TC -17.0616 122.254 2 6 207
1957041S12122 1957 16 SI WA NOT_NAMED 1957-02-14 01:00:00 TS -17.0199 122.524 965 bom main 0 0 P_____O__PP___ SH211957 -17.1641 122.245 -1 -16.8000 123.000 965 -17.1641 122.245 TC -17.1271 122.206 2 7 214
1957041S12122 1957 16 SI WA NOT_NAMED 1957-02-14 03:00:00 TS -17.2346 122.365 main 0 0 P_____P__PP___ SH211957 -17.2925 122.115 -1 -17.1191 122.811 963 -17.2925 122.115 TC -17.2684 122.101 2 9 218
1957041S12122 1957 16 SI WA NOT_NAMED 1957-02-14 05:30:00 TS -17.5373 122.102 bom main 10 0 P_____I__PP___ SH211957 -17.4633 121.936 -1 -17.6000 122.400 962 -17.4633 121.936 TC -17.4590 121.958 2 10 220
1957041S12122 1957 16 SI WA NOT_NAMED 1957-02-14 06:00:00 TS -17.5998 122.046 main 10 10 O_____P__OP___ jtwc_sh SH211957 -17.5000 121.900 -1 -17.7006 122.301 962 -17.5000 121.900 TC -17.4985 121.927 2 10 222
1957041S12122 1957 16 SI WA NOT_NAMED 1957-02-14 06:30:00 TS -17.6593 121.994 962 bom main 15 15 P_____O__PP___ SH211957 -17.5395 121.867 -1 -17.8000 122.200 962 -17.5395 121.867 TC -17.5382 121.897 2 9 219
1957041S12122 1957 16 SI WA NOT_NAMED 1957-02-14 09:00:00 TS -17.9335 121.760 main 42 42 P_____P__PP___ SH211957 -17.7500 121.700 -1 -18.1924 121.795 -17.7500 121.700 TC -17.7395 121.736 2 8 219
1957041S12122 1957 16 SI WA NOT_NAMED 1957-02-14 11:00:00 TS -18.1234 121.595 main 46 38 P_____P__PO___ SH211957 -17.9197 121.567 -1 -18.4005 121.567 -17.9197 121.567 TC -17.9000 121.600 1 7 220
1957041S12122 1957 16 SI WA NOT_NAMED 1957-02-14 12:00:00 TS -18.2067 121.520 main 46 38 O_____P__OP___ jtwc_sh SH211957 -18.0000 121.500 -1 -18.4752 121.480 -18.0000 121.500 TC -17.9738 121.533 1 6 222
1957041S12122 1957 16 SI WA NOT_NAMED 1957-02-14 15:00:00 TS -18.4124 121.318 main 47 43 P_____P__PP___ SH211957 -18.2000 121.307 -1 -18.6077 121.305 -18.2000 121.307 TC -18.1945 121.321 1 5 224
1957041S12122 1957 16 SI WA NOT_NAMED 1957-02-14 18:00:00 TS -18.5875 121.134 main 63 61 O_____P__OP___ jtwc_sh SH211957 -18.4000 121.100 -1 -18.6473 121.222 -18.4000 121.100 TC -18.4170 121.096 1 5 225
1957041S12122 1957 16 SI WA NOT_NAMED 1957-02-14 21:00:00 TS -18.7638 120.948 main 69 61 P_____P__PP___ SH211957 -18.6425 120.857 -1 -18.6514 121.179 -18.6425 120.857 TC -18.6442 120.861 1 5 225
1957041S12122 1957 16 SI WA NOT_NAMED 1957-02-14 23:00:00 TS -18.8837 120.822 main 69 69 P_____P__PO___ SH211957 -18.8140 120.686 -1 -18.6625 121.149 -18.8140 120.686 TC -18.8000 120.700 2 5 225
1957041S12122 1957 16 SI WA NOT_NAMED 1957-02-15 00:00:00 TS -18.9444 120.758 main 69 68 O_____P__OP___ jtwc_sh SH211957 -18.9000 120.600 -1 -18.6769 121.128 -18.9000 120.600 TC -18.8775 120.621 2 5 224
1957041S12122 1957 16 SI WA NOT_NAMED 1957-02-15 01:00:00 TS -19.0054 120.695 960 bom main 68 64 P_____O__PP___ SH211957 -18.9833 120.517 -1 -18.7000 121.100 960 4 -18.9833 120.517 TC -18.9556 120.541 2 6 225
1957041S12122 1957 16 SI WA NOT_NAMED 1957-02-15 03:00:00 TS -19.1444 120.551 main 64 54 P_____P__PP___ SH211957 -19.1500 120.350 -1 -18.8347 120.960 -19.1500 120.350 TC -19.1145 120.380 2 6 224
1957041S12122 1957 16 SI WA NOT_NAMED 1957-02-15 06:00:00 TS -19.3564 120.334 main 49 35 O_____P__OP___ jtwc_sh SH211957 -19.4000 120.100 -1 -19.0539 120.742 -19.4000 120.100 TC -19.3606 120.131 2 6 224
1957041S12122 1957 16 SI WA NOT_NAMED 1957-02-15 09:00:00 TS -19.5716 120.114 main 35 30 P_____P__PP___ SH211957 -19.6425 119.850 -1 -19.2903 120.522 -19.6425 119.850 TC -19.6192 119.875 2 6 223
1957041S12122 1957 16 SI WA NOT_NAMED 1957-02-15 11:00:00 TS -19.7224 119.967 main 30 22 P_____P__PO___ SH211957 -19.8109 119.683 -1 -19.4557 120.377 -19.8109 119.683 TC -19.8000 119.700 2 6 222
1957041S12122 1957 16 SI WA NOT_NAMED 1957-02-15 12:00:00 TS -19.7999 119.894 main 22 10 O_____P__OP___ jtwc_sh SH211957 -19.9000 119.600 -1 -19.5403 120.306 -19.9000 119.600 TC -19.8858 119.618 2 6 220
1957041S12122 1957 16 SI WA NOT_NAMED 1957-02-15 15:00:00 TS -20.0491 119.677 960 bom main 10 0 P_____O__PP___ SH211957 -20.1924 119.357 -1 -19.8000 120.100 960 -20.1924 119.357 TC -20.1512 119.367 2 7 219
1957041S12122 1957 16 SI WA NOT_NAMED 1957-02-15 18:00:00 TS -20.3116 119.455 main 0 0 O_____P__OP___ jtwc_sh SH211957 -20.5000 119.100 -1 -20.0350 119.933 966 -20.5000 119.100 TC -20.4385 119.103 2 7 219
1957041S12122 1957 16 SI WA NOT_NAMED 1957-02-15 21:00:00 TS -20.5831 119.213 main 0 0 P_____P__PP___ SH211957 -20.7774 118.822 -1 -20.2901 119.766 972 -20.7774 118.822 TC -20.7602 118.814 2 7 220
1957041S12122 1957 16 SI WA NOT_NAMED 1957-02-15 23:00:00 TS -20.7887 119.031 main 0 0 P_____P__PO___ SH211957 -20.9828 118.614 -1 -20.4824 119.642 976 -20.9828 118.614 TC -21.0000 118.600 1 8 219
1957041S12122 1957 16 SI WA NOT_NAMED 1957-02-16 00:00:00 TS -20.9025 118.930 main 0 0 O_____P__OP___ jtwc_sh SH211957 -21.1000 118.500 -1 -20.5876 119.574 978 -21.1000 118.500 TC -21.1251 118.477 1 9 219
1957041S12122 1957 16 SI WA NOT_NAMED 1957-02-16 01:00:00 TS -21.0257 118.823 980 bom main 0 0 P_____O__PP___ SH211957 -21.2303 118.378 -1 -20.7000 119.500 980 -21.2303 118.378 TC -21.2555 118.349 1 10 221
1957041S12122 1957 16 SI WA NOT_NAMED 1957-02-16 03:00:00 TS -21.2890 118.564 main 0 0 P_____P__PP___ SH211957 -21.5200 118.115 -1 -20.9119 119.195 -21.5200 118.115 TC -21.5314 118.079 1 11 223
1957041S12122 1957 16 SI WA NOT_NAMED 1957-02-16 06:00:00 TS -21.7261 118.133 main 0 0 O_____P__OP___ jtwc_sh SH211957 -22.0000 117.700 -1 -21.2619 118.620 -22.0000 117.700 TC -21.9791 117.660 1 12 222
1957041S12122 1957 16 SI WA NOT_NAMED 1957-02-16 09:00:00 TS -22.1988 117.691 main 0 0 P_____P__PP___ SH211957 -22.4998 117.307 -1 -21.6583 117.969 -22.4998 117.307 TC -22.4617 117.251 1 13 220
1957041S12122 1957 16 SI WA NOT_NAMED 1957-02-16 11:00:00 TS -22.5299 117.393 main 0 0 P_____P__PO___ SH211957 -22.8363 117.039 -1 -21.9531 117.530 -22.8363 117.039 TC -22.8000 117.000 1 13 220
1957041S12122 1957 16 SI WA NOT_NAMED 1957-02-16 12:00:00 TS -22.6920 117.237 main 0 0 O_____P__OP___ jtwc_sh SH211957 -23.0000 116.900 -1 -22.1108 117.317 -23.0000 116.900 TC -22.9440 116.849 1 13 223
1957041S12122 1957 16 SI WA NOT_NAMED 1957-02-16 15:00:00 TS -23.1663 116.743 main 0 0 P_____P__PP___ SH211957 -23.4203 116.390 -1 -22.6302 116.737 -23.4203 116.390 TC -23.3873 116.405 1 13 219
1957041S12122 1957 16 SI WA NOT_NAMED 1957-02-16 18:00:00 TS -23.6970 116.339 main 0 0 O_____P__OP___ jtwc_sh SH211957 -23.9000 116.000 -1 -23.2282 116.304 -23.9000 116.000 TC -23.8887 116.048 1 13 208
1957041S12122 1957 16 SI WA NOT_NAMED 1957-02-16 21:00:00 TS -24.3282 116.069 main 0 0 P_____P__PP___ SH211957 -24.5020 115.851 -1 -23.9175 116.095 -24.5020 115.851 TC -24.5021 115.871 1 14 194
1957041S12122 1957 16 SI WA NOT_NAMED 1957-02-16 23:00:00 TS -24.8324 116.028 main 0 0 P_____P__PO___ SH211957 -25.0076 115.915 -1 -24.4340 116.118 -25.0076 115.915 TC -25.0000 115.900 1 16 182
1957041S12122 1957 16 SI WA NOT_NAMED 1957-02-17 00:00:00 TS -25.1300 116.063 main 0 0 O_____P__OP___ jtwc_sh SH211957 -25.3000 116.000 -1 -24.7106 116.188 -25.3000 116.000 TC -25.2919 115.980 1 19 170
1957041S12122 1957 16 SI WA NOT_NAMED 1957-02-17 01:00:00 TS -25.4632 116.154 995 bom main 0 0 P_____O__PP___ SH211957 -25.6237 116.110 -1 -25.0000 116.300 995 -25.6237 116.110 TC -25.6053 116.096 1 22 159
1957041S12122 1957 16 SI WA NOT_NAMED 1957-02-17 03:00:00 TS -26.1500 116.503 main 0 0 P_____P__PP___ SH211957 -26.3476 116.437 -1 -25.6196 116.720 995 -26.3476 116.437 TC -26.2854 116.420 1 24 152
1957041S12122 1957 16 SI WA NOT_NAMED 1957-02-17 06:00:00 TS -27.2541 117.208 main 0 0 O_____P__OP___ jtwc_sh SH211957 -27.5000 117.100 -1 -26.6208 117.551 995 -27.5000 117.100 TC -27.3957 117.081 1 26 149
1957041S12122 1957 16 SI WA NOT_NAMED 1957-02-17 09:00:00 TS -28.3296 117.999 main 0 0 P_____P__PP___ SH211957 -28.5575 117.821 -1 -27.6565 118.490 995 -28.5575 117.821 TC -28.5467 117.863 1 26 147
1957041S12122 1957 16 SI WA NOT_NAMED 1957-02-17 10:00:00 TS -28.6844 118.273 995 bom main 0 0 P_____O__PP___ SH211957 -28.9054 118.079 -1 -28.0000 118.800 995 -28.9054 118.079 TC -28.9265 118.133 1 26 146
1957041S12122 1957 16 SI WA NOT_NAMED 1957-02-17 11:00:00 TS -29.0347 118.547 main 0 0 P_____P__PO___ SH211957 -29.2526 118.340 -1 -28.3335 119.108 995 -29.2526 118.340 TC -29.3000 118.400 1 25 146
1957041S12122 1957 16 SI WA NOT_NAMED 1957-02-17 12:00:00 TS -29.3830 118.820 main 0 0 O_____P__OP___ jtwc_sh SH211957 -29.6000 118.600 -1 -28.6670 119.417 995 -29.6000 118.600 TC -29.6650 118.662 1 25 145
1957041S12122 1957 16 SI WA NOT_NAMED 1957-02-17 15:00:00 TS -30.3865 119.634 main 0 0 P_____P__PP___ SH211957 -30.6481 119.357 -1 -29.6669 120.268 995 -30.6481 119.357 TC -30.7138 119.414 1 24 144
1957041S12122 1957 16 SI WA NOT_NAMED 1957-02-17 16:00:00 TS -30.6831 119.920 995 bom main 0 0 P_____O__PP___ SH211957 -30.9987 119.605 -1 -30.0000 120.500 995 -30.9987 119.605 TC -31.0505 119.657 1 23 147
1957041S12122 1957 16 SI WA NOT_NAMED 1957-02-17 18:00:00 TS -31.3594 120.366 main 0 0 O_____P__OP___ jtwc_sh SH211957 -31.7000 120.100 -1 -30.6662 120.855 995 -31.7000 120.100 TC -31.7089 120.132 1 22 150
1957041S12122 1957 16 SI WA NOT_NAMED 1957-02-17 21:00:00 NR -32.2684 120.982 main 0 0 ______P___P___ SH211957 -1 -31.6665 121.205 995 TC -32.6696 120.833 1 22 153
1957041S12122 1957 16 SI WA NOT_NAMED 1957-02-17 22:00:00 NR -32.6569 121.144 995 bom main 0 0 ______O___P___ SH211957 -1 -32.0000 121.300 995 TC -32.9854 121.066 1 32 165
1957041S12122 1957 16 SI WA NOT_NAMED 1957-02-17 23:00:00 NR -33.3000 121.300 main 0 __________O___ SH211957 -1 TC -33.3000 121.300 1 40 169

About IBTrACS Database

This database is a web-friendly format of International Best Track Archive for Climate Stewardship (IBTrACS), a global best track data archive curated by NOAA dating back to 1842.

Updated: 2021-11-26